Time;durP1;ratioP1;P1;durP2;ratioP2;P2;SDS_P1;SDS_P2;PMS_P1;PMS_P2;Temp;Humidity;BMP_temperature;BMP_pressure;BME280_temperature;BME280_humidity;BME280_pressure;Samples;Min_cycle;Max_cycle;Signal;HPM_P1;HPM_P2
2021/06/08 00:01:14;;;;;;;3.20;2.90;;;;;;;19.08;75.03;95923.38;5024742;28;20569;-85
2021/06/08 00:03:39;;;;;;;3.10;2.90;;;;;;;19.02;75.31;95924.28;5019935;28;20229;-85
2021/06/08 00:06:06;;;;;;;3.25;2.75;;;;;;;19.01;75.38;95923.47;5019095;28;20687;-84
2021/06/08 00:08:32;;;;;;;3.20;2.90;;;;;;;19.03;75.67;95923.25;5019814;28;20230;-85
2021/06/08 00:10:58;;;;;;;3.15;2.83;;;;;;;19.03;75.27;95915.44;5018933;28;20767;-85
2021/06/08 00:13:24;;;;;;;4.82;3.10;;;;;;;19.02;75.54;95917.25;5019381;28;20211;-84
2021/06/08 00:15:51;;;;;;;3.28;2.97;;;;;;;18.95;76.08;95914.69;5018604;28;20194;-84
2021/06/08 00:18:17;;;;;;;5.45;2.95;;;;;;;18.94;75.75;95917.53;5019347;28;20230;-85
2021/06/08 00:20:43;;;;;;;3.47;2.92;;;;;;;18.89;75.98;95923.41;5019885;28;20210;-83
2021/06/08 00:23:10;;;;;;;3.13;2.60;;;;;;;18.82;77.03;95927.94;5020086;28;20226;-84
2021/06/08 00:25:36;;;;;;;3.30;3.00;;;;;;;18.76;77.57;95923.56;5020100;28;20678;-84
2021/06/08 00:28:04;;;;;;;3.30;3.00;;;;;;;18.81;76.71;95923.72;5019706;28;20286;-85
2021/06/08 00:30:30;;;;;;;3.10;2.80;;;;;;;18.87;75.77;95922.03;5019716;28;20226;-84
2021/06/08 00:32:57;;;;;;;3.25;2.95;;;;;;;18.88;75.80;95921.81;5018938;28;20226;-84
2021/06/08 00:35:25;;;;;;;3.20;3.00;;;;;;;18.86;76.00;95923.03;5019880;28;20214;-85
2021/06/08 00:37:51;;;;;;;3.45;3.15;;;;;;;18.83;76.12;95913.88;5019333;28;20290;-84
2021/06/08 00:40:17;;;;;;;3.38;3.08;;;;;;;18.79;76.28;95914.50;5019591;28;20199;-84
2021/06/08 00:42:45;;;;;;;4.72;3.30;;;;;;;18.74;76.49;95915.16;5019421;28;20209;-85
2021/06/08 00:45:12;;;;;;;4.00;3.63;;;;;;;18.71;76.45;95917.41;5019588;28;20211;-84
2021/06/08 00:47:38;;;;;;;4.03;3.60;;;;;;;18.70;76.74;95910.59;5017938;28;20225;-84
2021/06/08 00:50:06;;;;;;;4.28;3.22;;;;;;;18.67;76.60;95911.84;5016258;28;20222;-84
2021/06/08 00:52:32;;;;;;;4.18;3.88;;;;;;;18.66;77.02;95918.09;5015926;28;20202;-85
2021/06/08 00:54:58;;;;;;;3.90;3.60;;;;;;;18.70;76.55;95916.63;5015991;28;20270;-85
2021/06/08 00:57:24;;;;;;;3.83;3.53;;;;;;;18.65;76.83;95908.66;5016556;28;20210;-85
2021/06/08 00:59:50;;;;;;;3.70;3.42;;;;;;;18.61;76.65;95910.13;5016405;28;20207;-84
2021/06/08 01:02:16;;;;;;;3.85;3.55;;;;;;;18.60;77.36;95903.31;5015843;28;20260;-84
2021/06/08 01:04:43;;;;;;;3.33;3.13;;;;;;;18.62;76.69;95907.28;5016573;28;20199;-85
2021/06/08 01:07:10;;;;;;;4.10;3.55;;;;;;;18.68;76.64;95908.22;5016220;28;20205;-85
2021/06/08 01:09:36;;;;;;;4.00;3.60;;;;;;;18.69;76.50;95912.41;5016749;28;20230;-84
2021/06/08 01:12:02;;;;;;;3.95;3.30;;;;;;;18.67;76.49;95904.00;5016292;28;20195;-84
2021/06/08 01:14:28;;;;;;;3.85;3.50;;;;;;;18.68;76.30;95899.59;5015479;28;20222;-83
2021/06/08 01:16:54;;;;;;;3.85;3.55;;;;;;;18.63;76.93;95898.44;5015337;28;20198;-84
2021/06/08 01:19:20;;;;;;;3.28;3.08;;;;;;;18.65;76.83;95887.00;5015371;28;20281;-84
2021/06/08 01:21:48;;;;;;;3.83;3.53;;;;;;;18.60;76.93;95893.66;5015243;28;20226;-84
2021/06/08 01:24:14;;;;;;;3.83;3.53;;;;;;;18.60;76.71;95888.44;5015410;28;20210;-83
2021/06/08 01:26:40;;;;;;;3.83;3.53;;;;;;;18.54;77.27;95891.09;5015610;28;20207;-84
2021/06/08 01:29:07;;;;;;;3.47;3.17;;;;;;;18.53;77.15;95886.91;5015385;28;20257;-84
2021/06/08 01:31:36;;;;;;;3.95;3.58;;;;;;;18.49;77.45;95888.34;5014843;28;20204;-84
2021/06/08 01:34:03;;;;;;;3.53;3.33;;;;;;;18.49;77.57;95888.34;5014777;28;20239;-84
2021/06/08 01:36:34;;;;;;;4.47;3.40;;;;;;;18.43;78.20;95889.22;5014786;28;20202;-84
2021/06/08 01:39:01;;;;;;;4.10;3.80;;;;;;;18.37;78.00;95892.69;5015051;28;20218;-83
2021/06/08 01:41:27;;;;;;;3.20;3.00;;;;;;;18.36;78.39;95886.69;5014834;28;20206;-84
2021/06/08 01:43:54;;;;;;;5.13;3.30;;;;;;;18.29;78.84;95891.16;5013907;28;20697;-83
2021/06/08 01:46:21;;;;;;;3.80;3.50;;;;;;;18.21;79.53;95889.66;5015475;28;20195;-84
2021/06/08 01:48:48;;;;;;;3.30;3.00;;;;;;;18.14;80.13;95891.53;5015738;28;20230;-84
2021/06/08 01:51:23;;;;;;;3.60;3.30;;;;;;;18.18;79.55;95897.91;5015014;28;20203;-82
2021/06/08 01:53:58;;;;;;;5.07;3.70;;;;;;;18.20;79.48;95902.91;5014871;28;20209;-84
2021/06/08 01:56:28;;;;;;;3.63;3.33;;;;;;;18.19;78.97;95898.69;5015611;28;20198;-83
2021/06/08 01:59:15;;;;;;;3.85;3.55;;;;;;;18.15;79.45;95897.53;5015158;28;20810;-83
2021/06/08 02:01:49;;;;;;;3.40;3.10;;;;;;;18.12;79.42;95898.75;5015402;28;20210;-84
2021/06/08 02:04:23;;;;;;;3.60;3.30;;;;;;;18.05;79.79;95898.03;5015958;28;20203;-83
2021/06/08 02:07:00;;;;;;;3.38;3.17;;;;;;;18.07;79.53;95901.22;5015483;28;20203;-83
2021/06/08 02:09:34;;;;;;;3.67;3.38;;;;;;;18.09;79.63;95899.19;5014719;28;20273;-83
2021/06/08 02:12:05;;;;;;;4.20;3.38;;;;;;;18.10;79.14;95900.78;5015083;28;20220;-85
2021/06/08 02:14:36;;;;;;;3.60;3.30;;;;;;;18.02;80.04;95901.06;5014772;28;20210;-83
2021/06/08 02:17:07;;;;;;;3.47;3.28;;;;;;;18.06;79.39;95904.84;5015016;28;20751;-82
2021/06/08 02:19:37;;;;;;;3.60;3.40;;;;;;;18.05;79.24;95900.66;5012501;28;20215;-83
2021/06/08 02:22:07;;;;;;;3.13;2.88;;;;;;;18.06;78.92;95904.06;5014650;28;20199;-83
2021/06/08 02:24:33;;;;;;;3.60;3.30;;;;;;;18.02;79.72;95900.28;5014590;28;20203;-82
2021/06/08 02:27:06;;;;;;;3.63;3.33;;;;;;;17.92;80.36;95898.94;5014547;28;20257;-82
2021/06/08 02:29:32;;;;;;;3.33;3.05;;;;;;;17.94;79.89;95906.56;5014370;28;20253;-82
2021/06/08 02:31:59;;;;;;;4.72;3.17;;;;;;;17.92;79.91;95905.97;5013495;28;20705;-85
2021/06/08 02:34:27;;;;;;;3.42;3.13;;;;;;;17.85;80.28;95903.44;5011405;28;20199;-84
2021/06/08 02:36:54;;;;;;;4.40;2.97;;;;;;;17.82;80.63;95910.88;5012021;28;20210;-83
2021/06/08 02:39:23;;;;;;;4.82;3.50;;;;;;;17.81;80.24;95911.88;5014005;28;20219;-84
2021/06/08 02:41:50;;;;;;;3.42;3.13;;;;;;;17.79;80.29;95911.28;5014716;28;20820;-83
2021/06/08 02:44:21;;;;;;;4.22;3.38;;;;;;;17.80;80.28;95898.06;4994250;28;20674;-82
2021/06/08 02:46:48;;;;;;;4.22;3.20;;;;;;;17.79;80.12;95906.88;5011294;28;20819;-83
2021/06/08 02:49:17;;;;;;;3.30;3.10;;;;;;;17.77;80.58;95908.09;5014573;28;20227;-83
2021/06/08 02:51:43;;;;;;;3.50;3.20;;;;;;;17.73;80.44;95907.72;5013761;28;20198;-82
2021/06/08 02:54:10;;;;;;;3.50;3.20;;;;;;;17.69;80.78;95914.41;5013615;28;20214;-83
2021/06/08 02:56:36;;;;;;;3.40;3.10;;;;;;;17.70;80.89;95916.00;5014111;28;20207;-84
2021/06/08 02:59:05;;;;;;;3.28;3.00;;;;;;;17.68;80.92;95912.00;5014017;28;20218;-84
2021/06/08 03:01:35;;;;;;;5.82;3.35;;;;;;;17.68;80.97;95914.59;5014308;28;20249;-83
2021/06/08 03:04:02;;;;;;;4.28;3.38;;;;;;;17.67;81.42;95915.63;5016284;28;20195;-82
2021/06/08 03:06:33;;;;;;;4.15;3.10;;;;;;;17.63;81.74;95927.44;5033034;28;20202;-83
2021/06/08 03:09:03;;;;;;;4.43;3.40;;;;;;;17.67;81.39;95926.03;5020751;28;20226;-83
2021/06/08 03:11:36;;;;;;;3.28;3.08;;;;;;;17.65;81.63;95921.03;5013286;28;20199;-84
2021/06/08 03:14:02;;;;;;;3.17;2.95;;;;;;;17.66;81.53;95927.03;5014095;28;20292;-84
2021/06/08 03:16:34;;;;;;;3.80;3.50;;;;;;;17.66;81.57;95929.63;5013665;28;20203;-83
2021/06/08 03:19:05;;;;;;;5.18;3.88;;;;;;;17.63;81.41;95930.03;5013950;28;20225;-83
2021/06/08 03:21:35;;;;;;;3.58;3.28;;;;;;;17.61;81.76;95936.25;5013692;28;20207;-83
2021/06/08 03:24:03;;;;;;;3.50;3.13;;;;;;;17.61;81.64;95936.25;5012882;28;20305;-84
2021/06/08 03:26:35;;;;;;;3.50;3.20;;;;;;;17.60;81.95;95937.25;5013903;28;20294;-84
2021/06/08 03:29:02;;;;;;;6.68;3.45;;;;;;;17.61;81.99;95935.44;5012662;28;20214;-83
2021/06/08 03:31:28;;;;;;;3.55;3.25;;;;;;;17.65;81.91;95936.66;5013727;28;20207;-83
2021/06/08 03:33:56;;;;;;;3.58;3.35;;;;;;;17.64;81.51;95940.25;5012339;28;20236;-84
2021/06/08 03:36:26;;;;;;;3.70;3.40;;;;;;;17.59;81.83;95945.28;5013124;28;20214;-84
2021/06/08 03:38:53;;;;;;;3.75;3.45;;;;;;;17.57;82.13;95935.06;5013611;28;20709;-85
2021/06/08 03:41:20;;;;;;;3.83;3.53;;;;;;;17.56;82.51;95943.88;5013076;28;20678;-83
2021/06/08 03:43:47;;;;;;;3.85;3.55;;;;;;;17.58;82.11;95948.88;5012653;28;20673;-84
2021/06/08 03:46:13;;;;;;;3.65;3.35;;;;;;;17.64;81.84;95953.28;5012960;28;20207;-84
2021/06/08 03:48:39;;;;;;;3.63;3.35;;;;;;;17.67;81.55;95949.47;5012676;28;20234;-83
2021/06/08 03:51:07;;;;;;;3.70;3.33;;;;;;;17.70;81.29;95952.44;5013447;28;20217;-83
2021/06/08 03:53:33;;;;;;;3.60;3.30;;;;;;;17.69;81.35;95956.06;5013121;28;20202;-84
2021/06/08 03:55:59;;;;;;;3.50;3.20;;;;;;;17.71;81.76;95948.81;5013363;28;20203;-85
2021/06/08 03:58:26;;;;;;;3.78;3.35;;;;;;;17.72;81.52;95947.00;5013379;28;20224;-82
2021/06/08 04:00:56;;;;;;;3.50;3.20;;;;;;;17.74;81.38;95942.38;5012760;28;20211;-84
2021/06/08 04:03:23;;;;;;;4.10;3.80;;;;;;;17.72;81.22;95947.81;5013979;28;20249;-84
2021/06/08 04:05:49;;;;;;;3.65;3.35;;;;;;;17.72;81.40;95950.41;5014280;28;20218;-84
2021/06/08 04:08:17;;;;;;;4.00;3.60;;;;;;;17.75;81.02;95951.78;5016525;28;20215;-83
2021/06/08 04:10:46;;;;;;;5.72;3.85;;;;;;;17.70;81.74;95949.84;5016542;28;20206;-83
2021/06/08 04:13:12;;;;;;;3.95;3.58;;;;;;;17.69;81.47;95958.66;5016422;28;20242;-84
2021/06/08 04:15:40;;;;;;;4.20;3.90;;;;;;;17.69;81.70;95956.06;5016150;28;20207;-85
2021/06/08 04:18:08;;;;;;;3.60;3.40;;;;;;;17.72;81.59;95960.03;5016836;28;20222;-83
2021/06/08 04:20:34;;;;;;;3.67;3.38;;;;;;;17.70;81.91;95959.47;5017032;28;20225;-84
2021/06/08 04:23:01;;;;;;;4.15;3.45;;;;;;;17.73;81.64;95964.22;5016055;28;20199;-83
2021/06/08 04:25:29;;;;;;;3.90;3.60;;;;;;;17.74;82.02;95965.81;5016541;28;20226;-84
2021/06/08 04:27:56;;;;;;;5.57;3.88;;;;;;;17.77;81.59;95965.41;5015995;28;20215;-84
2021/06/08 04:30:23;;;;;;;4.32;3.92;;;;;;;17.73;81.50;95967.63;5016086;28;20226;-83
2021/06/08 04:32:50;;;;;;;4.35;4.05;;;;;;;17.74;82.17;95969.22;5015632;28;20231;-84
2021/06/08 04:35:18;;;;;;;4.60;4.30;;;;;;;17.78;81.69;95967.81;5016407;28;20222;-83
2021/06/08 04:37:44;;;;;;;5.05;4.22;;;;;;;17.69;82.62;95971.69;5016271;28;20234;-84
2021/06/08 04:40:13;;;;;;;4.43;3.88;;;;;;;17.69;82.79;95965.69;5016088;28;20207;-83
2021/06/08 04:42:43;;;;;;;4.60;4.15;;;;;;;17.76;82.38;95963.81;5015238;28;20199;-83
2021/06/08 04:45:10;;;;;;;4.95;4.53;;;;;;;17.81;82.24;95975.19;5008206;28;20215;-84
2021/06/08 04:47:38;;;;;;;5.03;4.65;;;;;;;17.88;81.83;95970.75;5012290;28;20613;-83
2021/06/08 04:50:05;;;;;;;22.38;20.17;;;;;;;17.98;81.58;95967.66;5014277;28;20219;-84
2021/06/08 04:52:31;;;;;;;6.28;5.78;;;;;;;17.90;84.39;95966.09;5014407;28;20218;-83
2021/06/08 04:54:57;;;;;;;6.88;5.15;;;;;;;18.01;81.83;95969.84;5013205;28;20207;-82
2021/06/08 04:57:23;;;;;;;5.70;5.05;;;;;;;17.98;82.06;95972.84;5012509;28;20299;-84
2021/06/08 04:59:55;;;;;;;5.28;4.57;;;;;;;17.98;81.68;95970.25;5009241;28;20203;-84
2021/06/08 05:02:29;;;;;;;5.65;4.72;;;;;;;18.07;81.19;95970.78;5014628;28;20203;-83
2021/06/08 05:04:56;;;;;;;5.25;4.63;;;;;;;18.15;81.20;95971.31;5010758;28;20318;-84
2021/06/08 05:07:23;;;;;;;5.45;4.70;;;;;;;18.23;81.13;95971.03;5012133;28;20264;-84
2021/06/08 05:09:52;;;;;;;6.90;4.40;;;;;;;18.30;80.81;95978.78;5011884;28;20219;-85
2021/06/08 05:12:21;;;;;;;4.75;4.35;;;;;;;18.30;80.87;95978.78;5007318;28;20291;-87
2021/06/08 05:14:51;;;;;;;4.82;4.40;;;;;;;18.35;80.66;95968.53;5008701;28;20222;-85
2021/06/08 05:17:19;;;;;;;4.63;4.30;;;;;;;18.38;81.04;95975.13;5009871;28;20198;-85
2021/06/08 05:19:47;;;;;;;4.63;4.18;;;;;;;18.49;80.94;95982.22;5009763;28;20221;-85
2021/06/08 05:22:18;;;;;;;4.60;4.20;;;;;;;18.56;80.93;95969.91;5010866;28;20203;-85
2021/06/08 05:24:48;;;;;;;5.05;4.57;;;;;;;18.63;80.55;95983.72;5014268;28;20215;-85
2021/06/08 05:27:14;;;;;;;5.22;4.72;;;;;;;18.62;80.59;95987.34;5007403;28;20194;-84
2021/06/08 05:29:41;;;;;;;5.60;4.95;;;;;;;18.66;80.62;95982.50;5012220;28;20231;-84
2021/06/08 05:32:08;;;;;;;5.78;5.28;;;;;;;18.66;81.02;95988.50;5011795;28;20858;-85
2021/06/08 05:34:34;;;;;;;6.15;5.43;;;;;;;18.68;80.54;95989.06;5013703;28;20206;-86
2021/06/08 05:37:08;;;;;;;5.85;5.35;;;;;;;18.75;80.57;95992.41;5012765;28;20376;-85
2021/06/08 05:39:38;;;;;;;5.50;5.10;;;;;;;18.78;80.46;95991.19;5014708;28;20245;-85
2021/06/08 05:42:06;;;;;;;5.82;5.30;;;;;;;18.80;80.78;95989.97;5014084;28;20286;-85
2021/06/08 05:44:34;;;;;;;5.50;5.00;;;;;;;18.87;80.22;95997.69;5012754;28;20195;-83
2021/06/08 05:47:00;;;;;;;8.65;5.70;;;;;;;18.89;80.08;95991.25;5012671;28;20650;-85
2021/06/08 05:49:27;;;;;;;6.55;6.00;;;;;;;18.90;80.52;95997.25;5010654;28;20246;-86
2021/06/08 05:51:54;;;;;;;6.00;5.55;;;;;;;18.97;80.06;95998.78;5012127;28;20214;-85
2021/06/08 05:54:22;;;;;;;6.70;6.15;;;;;;;18.91;80.00;96002.25;5013730;28;20199;-86
2021/06/08 05:56:48;;;;;;;6.75;6.18;;;;;;;18.90;80.50;95998.06;5011816;28;20610;-85
2021/06/08 05:59:15;;;;;;;5.97;5.55;;;;;;;19.04;79.66;95997.94;5013163;28;20218;-86
2021/06/08 06:01:42;;;;;;;6.82;6.22;;;;;;;19.15;79.41;96005.81;5013050;28;20218;-85
2021/06/08 06:04:11;;;;;;;7.03;6.40;;;;;;;19.25;78.97;96005.28;5013462;28;20198;-85
2021/06/08 06:06:41;;;;;;;7.07;6.43;;;;;;;19.29;78.82;96006.44;5015893;28;20260;-85
2021/06/08 06:09:07;;;;;;;7.05;6.53;;;;;;;19.31;79.00;96009.63;5016569;28;20817;-85
2021/06/08 06:11:35;;;;;;;8.18;6.22;;;;;;;19.36;78.81;96001.94;5019963;28;20806;-85
2021/06/08 06:14:02;;;;;;;8.30;7.60;;;;;;;19.17;80.01;96001.16;5019225;28;20277;-84
2021/06/08 06:16:30;;;;;;;8.60;7.82;;;;;;;19.23;80.19;96000.31;5014625;28;20195;-85
2021/06/08 06:18:57;;;;;;;8.85;8.05;;;;;;;19.32;79.47;96003.38;5014355;28;20225;-84
2021/06/08 06:21:26;;;;;;;9.80;9.00;;;;;;;19.37;78.95;96000.91;5016739;28;20199;-85
2021/06/08 06:23:54;;;;;;;10.07;9.07;;;;;;;19.46;78.22;95999.56;5014661;28;20452;-85
2021/06/08 06:26:20;;;;;;;11.45;10.35;;;;;;;19.47;78.43;95997.75;5014359;28;20195;-86
2021/06/08 06:28:46;;;;;;;11.95;10.82;;;;;;;19.45;78.67;96003.19;5014138;28;20617;-84
2021/06/08 06:31:13;;;;;;;11.93;10.88;;;;;;;19.33;79.40;96002.38;5007281;28;20674;-85
2021/06/08 06:33:42;;;;;;;11.20;9.68;;;;;;;19.41;79.33;96006.50;5013140;28;20261;-84
2021/06/08 06:36:09;;;;;;;11.15;10.15;;;;;;;19.51;79.29;96010.19;5011285;28;20238;-84
2021/06/08 06:38:36;;;;;;;11.57;10.50;;;;;;;19.61;78.77;96007.84;5011388;28;20234;-84
2021/06/08 06:41:06;;;;;;;11.52;10.52;;;;;;;19.63;78.64;96007.59;5010928;28;20211;-84
2021/06/08 06:43:35;;;;;;;12.45;11.25;;;;;;;19.66;78.95;96007.16;5011801;28;20215;-85
2021/06/08 06:46:02;;;;;;;11.82;10.77;;;;;;;19.75;79.04;96010.28;5010988;28;20199;-84
2021/06/08 06:48:29;;;;;;;13.00;11.73;;;;;;;19.82;78.68;96014.38;5011530;28;20718;-85
2021/06/08 06:50:57;;;;;;;13.00;11.77;;;;;;;19.78;78.83;96017.69;5011314;28;20293;-85
2021/06/08 06:53:23;;;;;;;11.93;10.93;;;;;;;19.82;78.47;96013.59;5011266;28;20279;-86
2021/06/08 06:55:50;;;;;;;12.48;11.38;;;;;;;19.86;78.21;96015.53;5010813;28;20207;-86
2021/06/08 06:58:19;;;;;;;13.48;12.18;;;;;;;19.87;77.96;96017.13;5010390;28;20223;-85
2021/06/08 07:00:46;;;;;;;12.98;11.68;;;;;;;19.95;77.55;96013.41;5010394;28;20195;-84
2021/06/08 07:03:14;;;;;;;12.65;11.48;;;;;;;19.98;77.66;96018.19;5009188;28;20195;-87
2021/06/08 07:05:42;;;;;;;12.70;11.60;;;;;;;20.05;77.50;96018.84;5009992;28;20198;-86
2021/06/08 07:08:09;;;;;;;13.43;12.10;;;;;;;19.98;77.08;96011.13;5010445;28;20226;-85
2021/06/08 07:10:35;;;;;;;12.30;10.77;;;;;;;20.12;77.28;96008.31;5011710;28;20333;-84
2021/06/08 07:13:04;;;;;;;12.25;11.25;;;;;;;20.17;76.14;96022.31;5010840;28;20229;-85
2021/06/08 07:15:31;;;;;;;11.68;10.68;;;;;;;20.30;76.63;96014.22;5008943;28;20211;-86
2021/06/08 07:17:58;;;;;;;12.18;11.15;;;;;;;20.25;77.02;96013.31;5009555;28;20223;-86
2021/06/08 07:20:25;;;;;;;11.68;10.57;;;;;;;20.28;77.17;96025.94;5012763;28;20199;-85
2021/06/08 07:22:52;;;;;;;11.73;10.68;;;;;;;20.35;76.34;96022.19;5008617;28;20202;-85
2021/06/08 07:25:20;;;;;;;10.40;9.40;;;;;;;20.48;76.22;96020.41;5011709;28;20201;-85
2021/06/08 07:27:46;;;;;;;10.60;9.80;;;;;;;20.59;75.58;96022.25;5009458;28;20230;-85
2021/06/08 07:30:16;;;;;;;11.70;10.60;;;;;;;20.50;76.49;96019.16;5005101;28;20893;-85
2021/06/08 07:32:53;;;;;;;11.52;10.52;;;;;;;20.57;75.41;96019.06;5009393;28;20970;-85
2021/06/08 07:35:22;;;;;;;14.55;11.23;;;;;;;20.51;75.32;96019.97;5011674;28;20198;-85
2021/06/08 07:37:50;;;;;;;12.32;11.13;;;;;;;20.45;74.96;96019.03;5010504;28;20223;-85
2021/06/08 07:40:21;;;;;;;12.18;11.25;;;;;;;20.46;74.86;96012.78;5013442;28;20199;-84
2021/06/08 07:42:51;;;;;;;12.63;11.52;;;;;;;20.57;75.20;96016.44;5015302;28;20562;-85
2021/06/08 07:45:20;;;;;;;12.85;11.73;;;;;;;20.64;74.73;96017.09;5009066;28;20203;-85
2021/06/08 07:47:50;;;;;;;12.15;11.05;;;;;;;20.78;74.19;96015.84;5014810;28;20707;-84
2021/06/08 07:50:17;;;;;;;13.30;11.98;;;;;;;20.88;73.78;96012.63;5015664;28;20227;-84
2021/06/08 07:52:44;;;;;;;11.93;10.55;;;;;;;21.00;73.26;96006.34;5014453;28;20211;-86
2021/06/08 07:55:12;;;;;;;8.60;7.80;;;;;;;21.15;72.90;96011.13;5017321;28;20199;-86
2021/06/08 07:57:39;;;;;;;11.57;10.65;;;;;;;21.29;72.18;96015.06;5012659;28;20205;-86
2021/06/08 08:00:07;;;;;;;12.30;11.30;;;;;;;21.20;72.54;96016.47;5012492;28;20202;-86
2021/06/08 08:02:34;;;;;;;13.45;12.15;;;;;;;21.15;72.82;96018.16;5012303;28;20815;-86
2021/06/08 08:05:08;;;;;;;12.55;11.30;;;;;;;21.16;72.67;96012.72;5012535;28;20238;-86
2021/06/08 08:07:34;;;;;;;12.50;11.32;;;;;;;21.20;73.76;96016.47;5013991;28;20214;-85
2021/06/08 08:10:00;;;;;;;12.15;11.15;;;;;;;21.29;73.45;96015.06;5012299;28;20637;-85
2021/06/08 08:12:27;;;;;;;11.73;10.70;;;;;;;21.33;72.71;96018.03;5009641;28;20381;-85
2021/06/08 08:14:54;;;;;;;12.88;11.75;;;;;;;21.37;72.06;96021.75;5008986;28;20217;-86
2021/06/08 08:17:24;;;;;;;14.07;12.43;;;;;;;21.32;71.91;96022.47;5012655;28;20249;-85
2021/06/08 08:19:50;;;;;;;12.27;11.25;;;;;;;21.37;72.03;96021.75;5010096;28;20198;-85
2021/06/08 08:22:18;;;;;;;14.02;11.77;;;;;;;21.42;72.48;96013.19;5012249;28;20203;-85
2021/06/08 08:24:44;;;;;;;12.38;11.23;;;;;;;21.46;72.29;96015.13;5010693;28;20237;-86
2021/06/08 08:27:12;;;;;;;12.82;11.63;;;;;;;21.44;72.83;96017.19;5012294;28;20199;-84
2021/06/08 08:29:39;;;;;;;12.70;11.55;;;;;;;21.52;72.67;96018.66;5012246;28;20230;-87
2021/06/08 08:32:06;;;;;;;12.25;11.15;;;;;;;21.68;72.56;96018.69;5010306;28;20206;-86
2021/06/08 08:34:32;;;;;;;13.50;12.30;;;;;;;21.89;70.47;96019.84;5011761;28;20206;-85
2021/06/08 08:36:59;;;;;;;13.13;12.02;;;;;;;22.13;69.27;96020.50;5013511;28;20246;-86
2021/06/08 08:39:26;;;;;;;14.65;13.20;;;;;;;22.22;68.98;96007.78;5014552;28;20226;-86
2021/06/08 08:41:53;;;;;;;13.75;12.65;;;;;;;22.28;68.02;96012.88;5011640;28;20211;-86
2021/06/08 08:44:20;;;;;;;12.70;11.68;;;;;;;22.48;68.65;96003.72;5012592;28;20294;-85
2021/06/08 08:46:46;;;;;;;12.50;11.48;;;;;;;22.67;68.60;96012.91;5012117;28;20202;-86
2021/06/08 08:49:15;;;;;;;12.02;11.02;;;;;;;22.85;68.25;96004.78;5012329;28;20226;-86
2021/06/08 08:51:42;;;;;;;11.95;10.95;;;;;;;22.93;66.32;96011.44;5010565;28;20195;-86
2021/06/08 08:54:11;;;;;;;12.95;11.75;;;;;;;22.93;64.99;96003.56;5006059;28;20210;-84
2021/06/08 08:56:41;;;;;;;12.02;11.13;;;;;;;23.08;64.95;96003.78;5013039;28;20617;-86
2021/06/08 08:59:09;;;;;;;12.60;11.60;;;;;;;23.19;65.31;96002.03;5011763;28;20227;-86
2021/06/08 09:01:36;;;;;;;12.02;11.13;;;;;;;23.35;65.22;96004.59;5013707;28;20202;-87
2021/06/08 09:04:05;;;;;;;12.32;11.27;;;;;;;23.54;64.07;96005.09;5013309;28;20441;-86
2021/06/08 09:06:32;;;;;;;12.27;11.10;;;;;;;23.52;63.25;96006.38;5013803;28;20281;-85
2021/06/08 09:08:58;;;;;;;12.98;11.82;;;;;;;23.44;63.55;96007.59;5011729;28;20281;-85
2021/06/08 09:11:24;;;;;;;14.75;13.45;;;;;;;23.38;63.69;96009.34;5013470;28;20207;-87
2021/06/08 09:13:52;;;;;;;13.27;12.13;;;;;;;23.33;63.73;96005.88;5014361;28;20209;-86
2021/06/08 09:16:19;;;;;;;13.80;12.80;;;;;;;23.13;63.58;96009.06;5013980;28;20206;-86
2021/06/08 09:18:46;;;;;;;13.60;12.60;;;;;;;23.24;63.57;96008.16;5011827;28;20776;-86
2021/06/08 09:21:14;;;;;;;13.27;12.27;;;;;;;23.09;64.15;96011.38;5004137;28;20284;-86
2021/06/08 09:23:41;;;;;;;12.73;11.73;;;;;;;23.05;64.40;96009.50;5011173;28;20674;-85
2021/06/08 09:26:07;;;;;;;13.65;12.52;;;;;;;22.99;65.92;96006.00;5011808;28;21412;-86
2021/06/08 09:28:34;;;;;;;13.43;12.30;;;;;;;22.89;66.15;96002.47;5012657;28;20223;-87
2021/06/08 09:31:05;;;;;;;13.13;11.98;;;;;;;22.88;64.85;96006.13;5011400;28;20238;-86
2021/06/08 09:33:33;;;;;;;13.40;12.30;;;;;;;23.01;64.45;96008.41;5011896;28;20402;-85
2021/06/08 09:36:02;;;;;;;13.43;12.13;;;;;;;23.16;64.44;96011.22;5013487;28;20666;-86
2021/06/08 09:38:42;;;;;;;12.52;11.38;;;;;;;23.36;64.02;96008.00;5013277;28;20585;-86
2021/06/08 09:41:20;;;;;;;11.60;10.60;;;;;;;23.54;62.96;96009.53;5013913;28;20202;-85
2021/06/08 09:43:56;;;;;;;11.95;10.95;;;;;;;23.77;61.93;96009.25;5012685;28;20229;-86
2021/06/08 09:46:28;;;;;;;12.48;11.30;;;;;;;23.91;61.28;96012.25;5006318;28;20272;-87
2021/06/08 09:48:55;;;;;;;13.68;12.60;;;;;;;23.95;60.81;96003.63;5012683;28;20744;-84
2021/06/08 09:51:22;;;;;;;13.27;11.98;;;;;;;24.05;61.24;96005.56;5011860;28;20222;-86
2021/06/08 09:53:48;;;;;;;13.60;12.60;;;;;;;24.11;60.97;96007.97;5010545;28;20199;-86
2021/06/08 09:56:15;;;;;;;12.57;11.57;;;;;;;24.28;61.90;95993.91;5010802;28;20210;-86
2021/06/08 09:58:45;;;;;;;12.73;11.55;;;;;;;24.32;61.89;96002.88;5012666;28;20765;-86
2021/06/08 10:01:19;;;;;;;13.10;12.00;;;;;;;24.05;60.97;96002.94;5013523;28;20195;-87
2021/06/08 10:03:50;;;;;;;12.05;11.15;;;;;;;23.86;61.65;96001.72;5008886;28;20199;-86
2021/06/08 10:06:19;;;;;;;11.45;10.57;;;;;;;23.74;61.80;96002.66;5012754;28;20206;-86
2021/06/08 10:08:59;;;;;;;11.75;10.85;;;;;;;23.72;60.52;95996.84;5013314;28;20235;-86
2021/06/08 10:11:28;;;;;;;12.40;11.40;;;;;;;23.74;60.64;95997.41;5014377;28;20269;-86
2021/06/08 10:14:08;;;;;;;13.85;12.43;;;;;;;23.82;60.04;95993.53;5011332;28;20285;-86
2021/06/08 10:16:34;;;;;;;12.30;11.40;;;;;;;23.62;61.72;96002.03;5012559;28;20218;-85
2021/06/08 10:19:03;;;;;;;12.93;11.88;;;;;;;23.55;63.47;96001.41;5012781;28;20223;-85
2021/06/08 10:21:34;;;;;;;13.07;11.98;;;;;;;23.66;61.96;95997.84;5013133;28;20226;-86
2021/06/08 10:24:04;;;;;;;13.20;12.20;;;;;;;23.76;61.14;95999.78;5011659;28;20253;-85
2021/06/08 10:26:33;;;;;;;12.23;11.00;;;;;;;23.91;61.47;96002.53;5010625;28;20207;-86
2021/06/08 10:29:01;;;;;;;12.73;11.32;;;;;;;23.96;60.39;96005.22;5012027;28;20714;-86
2021/06/08 10:31:27;;;;;;;11.50;10.65;;;;;;;24.06;61.34;95997.41;5013784;28;20232;-86
2021/06/08 10:33:54;;;;;;;11.88;10.75;;;;;;;24.11;60.64;96002.72;5013360;28;20234;-85
2021/06/08 10:36:24;;;;;;;12.52;11.45;;;;;;;24.28;59.27;95994.69;5014099;28;20202;-86
2021/06/08 10:38:50;;;;;;;12.80;11.65;;;;;;;24.38;57.97;95989.53;5012743;28;20218;-86
2021/06/08 10:41:16;;;;;;;12.05;11.15;;;;;;;24.50;58.60;95993.78;5012904;28;20203;-86
2021/06/08 10:43:42;;;;;;;13.23;12.23;;;;;;;24.42;59.04;95990.63;5013405;28;20659;-85
2021/06/08 10:46:20;;;;;;;12.27;11.20;;;;;;;24.49;59.62;95990.38;5013720;28;20587;-84
2021/06/08 10:48:48;;;;;;;13.45;12.27;;;;;;;24.60;59.56;95991.25;5011926;28;20772;-86
2021/06/08 10:51:15;;;;;;;13.32;12.23;;;;;;;24.70;58.90;95984.16;5005644;28;20226;-86
2021/06/08 10:53:46;;;;;;;12.20;11.30;;;;;;;24.77;59.31;95976.06;5010534;28;20202;-85
2021/06/08 10:56:21;;;;;;;12.65;11.60;;;;;;;24.77;59.86;95979.47;4999659;28;20597;-86
2021/06/08 10:58:50;;;;;;;12.52;11.52;;;;;;;24.88;58.80;95982.16;5008635;28;20222;-85
2021/06/08 11:01:45;;;;;;;13.65;11.80;;;;;;;25.02;56.88;95978.00;5011945;28;20841;-85
2021/06/08 11:04:15;;;;;;;13.10;12.10;;;;;;;25.08;57.14;95983.06;5007393;28;20207;-86
2021/06/08 11:06:50;;;;;;;14.35;12.88;;;;;;;25.11;56.36;95984.38;5010764;28;20210;-85
2021/06/08 11:09:33;;;;;;;14.20;12.82;;;;;;;25.11;56.68;95979.91;5008771;28;20733;-86
2021/06/08 11:12:01;;;;;;;12.60;11.50;;;;;;;25.09;58.47;95982.00;5012031;28;20713;-85
2021/06/08 11:14:54;;;;;;;14.38;13.07;;;;;;;25.13;57.21;95971.75;5009585;28;20205;-86
2021/06/08 11:17:29;;;;;;;16.05;14.18;;;;;;;25.13;57.51;95975.19;5008809;28;20199;-86
2021/06/08 11:19:57;;;;;;;16.08;14.80;;;;;;;25.11;57.23;95969.38;5010462;28;20194;-86
2021/06/08 11:22:52;;;;;;;14.80;13.55;;;;;;;25.11;56.39;95963.31;5012925;28;20209;-86
2021/06/08 11:25:32;;;;;;;12.77;11.70;;;;;;;25.19;56.69;95969.94;5002140;28;20199;-86
2021/06/08 11:28:00;;;;;;;11.18;10.38;;;;;;;25.26;55.92;95963.34;5013382;28;20287;-86
2021/06/08 11:30:29;;;;;;;11.38;10.48;;;;;;;25.35;55.08;95968.91;5012757;28;20214;-87
2021/06/08 11:32:55;;;;;;;10.98;10.18;;;;;;;25.48;54.71;95961.28;5012193;28;20293;-86